createdAt,value
2019-02-12T05:31:44.064Z,3.20
2019-02-12T05:37:41.379Z,3.10
2019-02-12T05:40:11.092Z,3.00
2019-02-12T05:42:39.521Z,3.00
2019-02-12T05:45:13.069Z,3.00
2019-02-12T05:51:11.021Z,2.90
2019-02-12T05:53:39.544Z,2.90
2019-02-12T05:59:49.617Z,3.00
2019-02-12T06:05:59.421Z,2.90
2019-02-12T06:12:09.050Z,2.80
2019-02-12T06:14:37.488Z,2.90
2019-02-12T06:17:06.380Z,2.80
2019-02-12T06:23:04.368Z,2.80
2019-02-12T06:25:33.010Z,2.80
2019-02-12T06:28:01.521Z,2.90
2019-02-12T06:33:58.709Z,2.80
2019-02-12T06:36:27.169Z,2.80
2019-02-12T06:42:36.974Z,2.70
2019-02-12T06:48:47.069Z,2.70
2019-02-12T06:54:57.049Z,2.70
2019-02-12T07:01:06.747Z,2.70
2019-02-12T07:07:19.829Z,2.70
2019-02-12T07:09:48.371Z,2.70
2019-02-12T07:12:31.939Z,2.70
2019-02-12T07:18:59.603Z,2.70
2019-02-12T07:21:33.872Z,2.80
2019-02-12T07:27:42.539Z,2.80
2019-02-12T07:30:26.171Z,2.90
2019-02-12T07:33:15.939Z,2.90
2019-02-12T07:35:53.959Z,2.90
2019-02-12T07:38:36.803Z,3.00
2019-02-12T07:41:20.238Z,3.10
2019-02-12T07:44:03.956Z,3.10
2019-02-12T07:46:50.686Z,3.20
2019-02-12T07:49:25.058Z,3.20
2019-02-12T07:51:59.786Z,3.20
2019-02-12T07:54:34.179Z,3.30
2019-02-12T08:00:37.463Z,3.40
2019-02-12T08:03:43.779Z,3.50
2019-02-12T08:06:30.280Z,3.50
2019-02-12T08:09:21.456Z,3.50
2019-02-12T08:11:52.969Z,3.60
2019-02-12T08:14:36.566Z,3.70
2019-02-12T08:17:22.990Z,3.80
2019-02-12T08:20:22.019Z,3.80
2019-02-12T08:23:08.178Z,4.00
2019-02-12T08:26:02.123Z,4.10
2019-02-12T08:28:53.292Z,4.20
2019-02-12T08:35:20.879Z,4.20
2019-02-12T08:41:32.551Z,4.30
2019-02-12T08:44:07.221Z,4.40
2019-02-12T08:46:47.803Z,4.40
2019-02-12T08:49:42.052Z,4.40
2019-02-12T08:52:28.751Z,4.30
2019-02-12T08:58:29.156Z,4.40
2019-02-12T09:01:12.763Z,4.40
2019-02-12T09:03:46.951Z,4.40
2019-02-12T09:06:36.626Z,4.40
2019-02-12T09:09:08.240Z,4.50
2019-02-12T09:11:48.804Z,4.50
2019-02-12T09:14:23.266Z,4.50
2019-02-12T09:17:12.711Z,4.50
2019-02-12T09:19:59.139Z,4.60
2019-02-12T09:22:43.033Z,4.60
2019-02-12T09:25:17.375Z,4.70
2019-02-12T09:27:49.269Z,4.70
2019-02-12T09:30:20.850Z,4.80
2019-02-12T09:33:10.638Z,4.80
2019-02-12T09:35:48.103Z,4.80
2019-02-12T09:38:19.687Z,4.70
2019-02-12T09:40:51.223Z,4.70
2019-02-12T09:43:28.327Z,4.60
2019-02-12T09:46:08.919Z,4.60
2019-02-12T09:48:49.690Z,4.60
2019-02-12T09:51:38.255Z,4.70
2019-02-12T09:54:15.345Z,4.60
2019-02-12T09:57:03.651Z,4.60
2019-02-12T10:03:25.344Z,4.80
2019-02-12T10:06:05.627Z,4.80
2019-02-12T10:08:58.342Z,4.80
2019-02-12T10:15:04.752Z,4.90
2019-02-12T10:17:41.394Z,5.00
2019-02-12T10:20:24.944Z,5.00
2019-02-12T10:23:08.499Z,5.10
2019-02-12T10:25:37.107Z,5.20
2019-02-12T10:28:26.219Z,5.20
2019-02-12T10:30:57.780Z,5.30
2019-02-12T10:33:26.275Z,5.20
2019-02-12T10:35:54.958Z,5.20
2019-02-12T10:38:23.393Z,5.30
2019-02-12T10:40:51.822Z,5.40
2019-02-12T10:43:20.275Z,5.50
2019-02-12T10:45:48.775Z,5.60
2019-02-12T10:48:18.049Z,5.70
2019-02-12T10:50:46.639Z,5.80
2019-02-12T10:53:15.064Z,5.80
2019-02-12T10:55:43.497Z,5.80
2019-02-12T10:58:11.970Z,5.80
2019-02-12T11:00:40.475Z,5.90
2019-02-12T11:03:08.920Z,6.00
2019-02-12T11:05:38.074Z,5.90
2019-02-12T11:08:06.506Z,5.90
2019-02-12T11:10:34.972Z,5.90
2019-02-12T11:16:33.076Z,6.00
2019-02-12T11:22:31.047Z,6.00
2019-02-12T11:28:28.206Z,6.00
2019-02-12T11:34:25.575Z,6.10
2019-02-12T11:40:22.754Z,6.00
2019-02-12T11:46:19.598Z,6.10
2019-02-12T11:52:17.357Z,6.40
2019-02-12T11:54:46.227Z,6.40
2019-02-12T11:57:15.853Z,6.40
2019-02-12T11:59:44.796Z,6.40
2019-02-12T12:02:13.589Z,6.40
2019-02-12T12:08:23.331Z,6.30
2019-02-12T12:10:51.762Z,6.40
2019-02-12T12:13:20.191Z,6.40
2019-02-12T12:15:48.867Z,6.50
2019-02-12T12:18:17.306Z,6.30
2019-02-12T12:20:45.732Z,6.40
2019-02-12T12:23:14.481Z,6.50
2019-02-12T12:29:24.355Z,6.60
2019-02-12T12:31:53.052Z,6.60
2019-02-12T12:34:21.483Z,6.50
2019-02-12T12:36:49.943Z,6.50
2019-02-12T12:39:18.720Z,6.60
2019-02-12T12:41:47.147Z,6.50
2019-02-12T12:44:15.630Z,6.50
2019-02-12T12:46:44.133Z,6.60
2019-02-12T12:49:12.558Z,6.50
2019-02-12T12:51:41.347Z,6.50
2019-02-12T12:54:10.143Z,6.60
2019-02-12T12:56:38.579Z,6.60
2019-02-12T12:59:07.110Z,6.60
2019-02-12T13:01:35.544Z,6.70
2019-02-12T13:04:04.035Z,6.70
2019-02-12T13:06:32.513Z,6.70
2019-02-12T13:09:00.939Z,6.70
2019-02-12T13:11:29.364Z,6.60
2019-02-12T13:13:58.175Z,6.50
2019-02-12T13:16:26.602Z,6.30
2019-02-12T13:22:00.314Z,6.40
2019-02-12T13:24:28.767Z,6.50
2019-02-12T13:26:57.194Z,6.50
2019-02-12T13:32:54.333Z,6.60
2019-02-12T13:35:22.849Z,6.70
2019-02-12T13:41:32.490Z,6.70
2019-02-12T13:44:00.926Z,6.70
2019-02-12T13:46:29.399Z,6.60
2019-02-12T13:52:26.386Z,6.70
2019-02-12T13:54:54.843Z,6.60
2019-02-12T13:57:23.543Z,6.70
2019-02-12T13:59:52.324Z,6.80
2019-02-12T14:02:21.214Z,6.70
2019-02-12T14:04:49.638Z,6.60
2019-02-12T14:07:18.071Z,6.70
2019-02-12T14:09:46.548Z,6.70
2019-02-12T14:12:15.857Z,6.60
2019-02-12T14:14:44.391Z,6.60
2019-02-12T14:17:12.863Z,6.70
2019-02-12T14:23:22.728Z,6.80
2019-02-12T14:25:51.156Z,6.80
2019-02-12T14:28:19.715Z,6.70
2019-02-12T14:30:48.385Z,6.70
2019-02-12T14:33:16.816Z,6.70
2019-02-12T14:35:45.238Z,6.70
2019-02-12T14:41:43.269Z,6.60
2019-02-12T14:44:11.736Z,6.60
2019-02-12T14:46:40.166Z,6.50
2019-02-12T14:49:08.603Z,6.50
2019-02-12T14:51:37.069Z,6.30
2019-02-12T14:57:46.686Z,6.50
2019-02-12T15:03:56.922Z,6.60
2019-02-12T15:06:25.425Z,6.80
2019-02-12T15:12:23.210Z,6.70
2019-02-12T15:18:21.012Z,6.50
2019-02-12T15:20:49.602Z,6.40
2019-02-12T15:26:59.595Z,6.40
2019-02-12T15:32:45.852Z,6.50
2019-02-12T15:35:14.512Z,6.40
2019-02-12T15:40:59.804Z,6.50
2019-02-12T15:46:56.633Z,6.40
2019-02-12T15:52:54.247Z,6.40
2019-02-12T15:55:22.731Z,6.40
2019-02-12T16:01:32.395Z,6.30
2019-02-12T16:07:42.622Z,6.20
2019-02-12T16:13:54.731Z,6.10
2019-02-12T16:20:06.443Z,6.10
2019-02-12T16:26:16.339Z,6.00
2019-02-12T16:28:44.780Z,5.80
2019-02-12T16:31:13.459Z,5.80
2019-02-12T16:33:41.951Z,5.70
2019-02-12T16:39:51.579Z,5.60
2019-02-12T16:45:54.667Z,5.40
2019-02-12T16:52:05.008Z,5.30
2019-02-12T16:58:14.502Z,5.20
2019-02-12T17:04:24.679Z,5.00
2019-02-12T17:06:53.460Z,4.90
2019-02-12T17:09:22.242Z,4.80
2019-02-12T17:15:19.297Z,4.70
2019-02-12T17:17:47.790Z,4.70
2019-02-12T17:20:19.329Z,4.70
2019-02-12T17:22:47.759Z,4.60
2019-02-12T17:25:16.352Z,4.60
2019-02-12T17:27:44.778Z,4.60
2019-02-12T17:30:17.426Z,4.60
2019-02-12T17:32:45.880Z,4.50
2019-02-12T17:35:14.311Z,4.60
2019-02-12T17:41:12.292Z,4.70
2019-02-12T17:43:40.991Z,4.70
2019-02-12T17:46:09.498Z,4.60
2019-02-12T17:48:37.932Z,4.60
2019-02-12T17:51:06.406Z,4.60
2019-02-12T17:53:34.858Z,4.60
2019-02-12T17:56:03.302Z,4.60
2019-02-12T17:58:31.771Z,4.50
2019-02-12T18:04:41.552Z,4.40
2019-02-12T18:07:09.986Z,4.40
2019-02-12T18:13:07.463Z,4.40
2019-02-12T18:15:36.665Z,4.40
2019-02-12T18:21:46.491Z,4.30
2019-02-12T18:27:56.170Z,4.20
2019-02-12T18:30:24.609Z,4.20
2019-02-12T18:32:53.078Z,4.20
2019-02-12T18:38:50.005Z,4.20
2019-02-12T18:44:47.704Z,4.20
2019-02-12T18:47:16.481Z,4.10
2019-02-12T18:49:44.923Z,4.20
2019-02-12T18:52:13.351Z,4.10
2019-02-12T18:58:10.143Z,4.10
2019-02-12T19:04:07.840Z,4.00
2019-02-12T19:10:08.486Z,3.80
2019-02-12T19:16:05.908Z,3.70
2019-02-12T19:52:37.240Z,3.30
2019-02-12T19:55:08.550Z,3.30
2019-02-12T20:03:35.814Z,3.20
2019-02-12T20:12:05.627Z,3.40
2019-02-12T20:14:34.195Z,3.50
2019-02-12T20:20:44.403Z,3.50
2019-02-12T20:26:53.872Z,3.60
